Time;durP1;ratioP1;P1;durP2;ratioP2;P2;SDS_P1;SDS_P2;PMS_P1;PMS_P2;Temp;Humidity;BMP_temperature;BMP_pressure;BME280_temperature;BME280_humidity;BME280_pressure;Samples;Min_cycle;Max_cycle;Signal;HPM_P1;HPM_P2
2021/11/26 00:02:19;;;;;;;49.47;32.13;;;4.50;80.90;;;;;;5100993;28;20407;-45
2021/11/26 00:04:45;;;;;;;54.63;33.97;;;4.50;81.00;;;;;;5101439;28;20695;-45
2021/11/26 00:07:11;;;;;;;49.67;34.10;;;4.50;81.10;;;;;;5099893;28;20410;-45
2021/11/26 00:09:37;;;;;;;56.23;33.90;;;4.50;81.20;;;;;;5090013;28;20414;-46
2021/11/26 00:12:05;;;;;;;59.37;36.30;;;4.50;81.40;;;;;;5111108;28;20414;-45
2021/11/26 00:14:34;;;;;;;56.07;34.47;;;4.50;81.50;;;;;;5111563;28;20417;-46
2021/11/26 00:17:02;;;;;;;55.90;36.07;;;4.50;81.50;;;;;;5110603;28;20409;-44
2021/11/26 00:19:30;;;;;;;60.63;34.00;;;4.40;81.60;;;;;;5110823;28;20430;-45
2021/11/26 00:21:57;;;;;;;55.17;34.17;;;4.40;81.60;;;;;;5111479;28;20428;-44
2021/11/26 00:24:23;;;;;;;53.40;33.67;;;4.40;81.70;;;;;;5107719;28;20417;-45
2021/11/26 00:26:49;;;;;;;57.57;34.40;;;4.40;81.70;;;;;;5110315;28;20435;-45
2021/11/26 00:29:15;;;;;;;54.20;33.77;;;4.40;81.90;;;;;;5111002;28;20428;-46
2021/11/26 00:31:40;;;;;;;61.60;37.00;;;4.40;82.00;;;;;;5120007;28;20524;-45
2021/11/26 00:34:07;;;;;;;54.63;33.83;;;4.40;82.00;;;;;;5120007;28;20513;-45
2021/11/26 00:36:33;;;;;;;56.53;34.27;;;4.40;82.00;;;;;;5119947;28;20172;-45
2021/11/26 00:39:00;;;;;;;58.20;34.10;;;4.40;82.70;;;;;;5118329;28;20618;-45
2021/11/26 00:41:26;;;;;;;56.97;35.87;;;4.40;82.00;;;;;;5119176;28;20422;-45
2021/11/26 00:43:52;;;;;;;50.77;32.83;;;4.30;82.60;;;;;;5118595;28;20445;-44
2021/11/26 00:46:18;;;;;;;48.03;31.67;;;4.30;82.10;;;;;;5118989;28;20761;-45
2021/11/26 00:48:43;;;;;;;47.40;32.27;;;4.30;82.10;;;;;;5117168;28;20422;-45
2021/11/26 00:51:09;;;;;;;51.63;32.40;;;4.30;82.20;;;;;;5118440;28;20734;-45
2021/11/26 00:53:35;;;;;;;52.97;33.83;;;4.30;82.30;;;;;;5118871;28;20255;-45
2021/11/26 00:56:01;;;;;;;50.40;31.90;;;4.30;82.30;;;;;;5119187;28;20922;-45
2021/11/26 00:58:27;;;;;;;49.53;33.33;;;4.30;82.30;;;;;;5119661;28;20453;-44
2021/11/26 01:00:52;;;;;;;54.70;35.23;;;4.30;82.30;;;;;;5119442;28;20206;-44
2021/11/26 01:03:18;;;;;;;53.00;33.00;;;4.30;82.40;;;;;;5119491;28;20230;-44
2021/11/26 01:05:44;;;;;;;56.10;33.77;;;4.30;82.30;;;;;;5118836;28;20324;-44
2021/11/26 01:08:09;;;;;;;53.17;33.40;;;4.30;82.30;;;;;;5119399;28;20514;-44
2021/11/26 01:10:35;;;;;;;55.20;32.37;;;4.30;82.40;;;;;;5119153;28;20544;-44
2021/11/26 01:13:01;;;;;;;55.93;33.00;;;4.30;82.40;;;;;;5119365;28;20581;-44
2021/11/26 01:15:29;;;;;;;53.87;33.23;;;4.30;82.50;;;;;;5119014;28;20515;-44
2021/11/26 01:17:55;;;;;;;49.40;32.13;;;4.30;82.50;;;;;;5119272;28;20453;-44
2021/11/26 01:20:25;;;;;;;56.00;34.17;;;4.30;82.50;;;;;;5118308;28;20472;-44
2021/11/26 01:22:51;;;;;;;53.50;34.20;;;4.30;82.40;;;;;;5117824;28;20498;-44
2021/11/26 01:25:17;;;;;;;54.83;34.13;;;4.40;82.60;;;;;;5118305;28;20430;-44
2021/11/26 01:27:43;;;;;;;55.77;34.23;;;4.30;82.50;;;;;;5118520;28;20476;-44
2021/11/26 01:30:19;;;;;;;53.47;34.13;;;4.30;82.60;;;;;;5118902;28;20451;-44
2021/11/26 01:32:45;;;;;;;55.83;33.80;;;4.30;82.60;;;;;;5118935;28;20823;-45
2021/11/26 01:35:10;;;;;;;55.27;33.60;;;4.30;82.60;;;;;;5118231;28;20433;-45
2021/11/26 01:37:36;;;;;;;55.10;33.10;;;4.30;82.70;;;;;;5119000;28;20312;-45
2021/11/26 01:40:04;;;;;;;50.13;31.97;;;4.30;82.80;;;;;;5118003;28;20184;-44
2021/11/26 01:42:30;;;;;;;51.67;33.37;;;4.30;82.80;;;;;;5117828;28;20406;-45
2021/11/26 01:44:55;;;;;;;52.47;31.57;;;4.30;83.50;;;;;;5117796;28;20487;-45
2021/11/26 01:47:21;;;;;;;53.97;33.20;;;4.30;82.90;;;;;;5117176;28;20176;-44
2021/11/26 01:49:47;;;;;;;56.70;33.20;;;4.30;82.90;;;;;;5117508;28;20286;-45
2021/11/26 01:52:12;;;;;;;49.30;31.77;;;4.30;82.90;;;;;;5116689;28;20559;-45
2021/11/26 01:54:38;;;;;;;55.33;32.03;;;4.30;82.90;;;;;;5115927;28;20186;-45
2021/11/26 01:57:04;;;;;;;55.50;34.77;;;4.30;82.90;;;;;;5117915;28;20266;-45
2021/11/26 01:59:31;;;;;;;52.60;31.97;;;4.30;82.90;;;;;;5117066;28;20168;-45
2021/11/26 02:01:57;;;;;;;56.83;36.10;;;4.30;83.00;;;;;;5118277;28;20420;-44
2021/11/26 02:04:23;;;;;;;51.03;31.90;;;4.30;83.10;;;;;;5118490;28;20409;-45
2021/11/26 02:06:48;;;;;;;51.60;32.73;;;4.20;83.10;;;;;;5118493;28;20480;-44
2021/11/26 02:09:14;;;;;;;50.67;33.20;;;4.20;83.10;;;;;;5117946;28;20228;-45
2021/11/26 02:11:39;;;;;;;51.33;32.47;;;4.20;83.80;;;;;;5117310;28;20184;-45
2021/11/26 02:14:05;;;;;;;49.73;30.77;;;4.20;83.10;;;;;;5117996;28;20169;-44
2021/11/26 02:16:47;;;;;;;51.40;32.83;;;4.20;83.10;;;;;;5118445;28;20211;-43
2021/11/26 02:19:13;;;;;;;50.87;31.90;;;4.20;83.10;;;;;;5118092;28;20206;-55
2021/11/26 02:21:40;;;;;;;58.57;34.90;;;4.20;83.10;;;;;;5118225;28;20426;-45
2021/11/26 02:24:06;;;;;;;52.43;35.60;;;4.20;83.10;;;;;;5118463;28;20429;-44
2021/11/26 02:26:40;;;;;;;48.07;31.33;;;4.20;83.10;;;;;;5118529;28;20835;-45
2021/11/26 02:29:07;;;;;;;50.07;30.47;;;4.20;83.30;;;;;;5117299;28;20808;-44
2021/11/26 02:31:33;;;;;;;52.63;33.10;;;4.20;83.30;;;;;;5131825;27;20881;-45
2021/11/26 02:33:58;;;;;;;49.73;30.33;;;4.20;83.40;;;;;;5122220;28;20410;-45
2021/11/26 02:36:24;;;;;;;45.87;29.57;;;4.20;83.40;;;;;;5122259;28;20256;-45
2021/11/26 02:38:49;;;;;;;53.60;32.20;;;4.20;83.30;;;;;;5120827;28;20207;-45
2021/11/26 02:41:15;;;;;;;47.17;31.03;;;4.20;83.40;;;;;;5120934;28;20543;-45
2021/11/26 02:43:41;;;;;;;48.93;30.07;;;4.20;83.40;;;;;;5120664;28;20168;-45
2021/11/26 02:46:07;;;;;;;49.47;31.97;;;4.20;83.40;;;;;;5120722;28;20257;-45
2021/11/26 02:48:32;;;;;;;48.40;32.10;;;4.20;84.00;;;;;;5121278;28;20271;-45
2021/11/26 02:50:58;;;;;;;45.60;30.43;;;4.20;83.30;;;;;;5120861;28;20180;-45
2021/11/26 02:53:24;;;;;;;44.73;29.97;;;4.20;83.40;;;;;;5121494;28;20220;-45
2021/11/26 02:55:50;;;;;;;47.60;31.03;;;4.20;83.30;;;;;;5121543;28;20472;-45
2021/11/26 02:58:16;;;;;;;50.47;34.00;;;4.20;83.30;;;;;;5121932;28;20200;-45
2021/11/26 03:00:44;;;;;;;45.83;30.40;;;4.20;83.40;;;;;;5121409;28;20533;-44
2021/11/26 03:03:10;;;;;;;50.57;31.77;;;4.20;83.40;;;;;;5121928;28;20203;-45
2021/11/26 03:05:36;;;;;;;49.10;31.40;;;4.20;83.50;;;;;;5121299;28;20708;-45
2021/11/26 03:08:02;;;;;;;49.80;31.03;;;4.20;83.50;;;;;;5121725;28;20288;-44
2021/11/26 03:10:28;;;;;;;50.03;32.60;;;4.20;83.40;;;;;;5121453;28;20429;-45
2021/11/26 03:12:59;;;;;;;48.40;30.47;;;4.20;83.50;;;;;;5121886;28;20909;-45
2021/11/26 03:15:27;;;;;;;47.40;31.63;;;4.20;83.50;;;;;;5121311;28;20430;-44
2021/11/26 03:17:54;;;;;;;51.03;29.90;;;4.20;83.50;;;;;;5121461;28;20643;-45
2021/11/26 03:20:20;;;;;;;46.57;32.60;;;4.20;83.60;;;;;;5121257;28;20422;-45
2021/11/26 03:22:46;;;;;;;50.30;31.63;;;4.20;83.60;;;;;;5121709;28;20416;-45
2021/11/26 03:25:12;;;;;;;44.20;29.63;;;4.20;83.60;;;;;;5120405;28;20435;-45
2021/11/26 03:27:38;;;;;;;40.33;28.00;;;4.20;83.70;;;;;;5120971;28;20428;-45
2021/11/26 03:30:05;;;;;;;52.13;32.97;;;4.20;83.70;;;;;;5121597;28;20609;-45
2021/11/26 03:32:31;;;;;;;47.40;31.20;;;4.20;83.70;;;;;;5121114;28;20416;-45
2021/11/26 03:34:56;;;;;;;51.50;31.67;;;4.20;83.70;;;;;;5120708;28;20429;-45
2021/11/26 03:37:22;;;;;;;49.90;30.00;;;4.20;83.80;;;;;;5121293;27;20203;-45
2021/11/26 03:39:48;;;;;;;48.13;30.50;;;4.20;83.90;;;;;;5120880;28;20177;-45
2021/11/26 03:42:13;;;;;;;46.67;30.33;;;4.20;84.00;;;;;;5120355;28;20498;-45
2021/11/26 03:44:39;;;;;;;44.97;29.40;;;4.10;83.90;;;;;;5120570;28;20168;-45
2021/11/26 03:47:05;;;;;;;47.20;32.57;;;4.10;83.90;;;;;;5120769;28;20175;-45
2021/11/26 03:49:31;;;;;;;47.10;30.83;;;4.10;83.90;;;;;;5120368;28;20183;-45
2021/11/26 03:51:57;;;;;;;47.53;30.30;;;4.10;84.00;;;;;;5121378;28;20413;-45
2021/11/26 03:54:22;;;;;;;46.27;30.67;;;4.10;84.10;;;;;;5120323;28;20265;-45
2021/11/26 03:56:48;;;;;;;43.63;29.10;;;4.10;84.10;;;;;;5120838;28;20464;-45
2021/11/26 03:59:14;;;;;;;46.07;28.80;;;4.10;84.20;;;;;;5120454;28;20204;-45
2021/11/26 04:01:39;;;;;;;43.50;27.03;;;4.10;84.10;;;;;;5120613;28;20194;-45
2021/11/26 04:04:05;;;;;;;40.90;27.67;;;4.10;84.10;;;;;;5120342;28;20546;-43
2021/11/26 04:06:31;;;;;;;44.27;30.43;;;4.10;84.20;;;;;;5120394;28;20180;-42
2021/11/26 04:08:56;;;;;;;41.50;27.90;;;4.10;84.20;;;;;;5120260;28;20518;-43
2021/11/26 04:11:22;;;;;;;40.90;27.30;;;4.10;84.30;;;;;;5120249;28;20460;-41
2021/11/26 04:13:48;;;;;;;38.53;26.20;;;4.10;84.20;;;;;;5120329;27;20180;-43
2021/11/26 04:16:14;;;;;;;42.93;28.50;;;4.10;84.10;;;;;;5120346;28;20190;-43
2021/11/26 04:18:43;;;;;;;42.03;27.30;;;4.10;84.10;;;;;;5119816;28;20269;-46
2021/11/26 04:21:09;;;;;;;39.33;26.90;;;4.10;84.20;;;;;;5118620;28;20449;-43
2021/11/26 04:23:35;;;;;;;37.63;25.17;;;4.10;84.20;;;;;;5119783;28;20406;-43
2021/11/26 04:26:02;;;;;;;39.07;27.07;;;4.10;84.30;;;;;;5119179;28;20444;-44
2021/11/26 04:28:27;;;;;;;37.20;26.00;;;4.10;84.30;;;;;;5119318;28;20778;-44
2021/11/26 04:30:53;;;;;;;40.53;27.10;;;4.10;84.40;;;;;;5119203;28;20540;-44
2021/11/26 04:33:19;;;;;;;42.70;27.70;;;4.10;84.40;;;;;;5119824;28;20215;-44
2021/11/26 04:35:48;;;;;;;39.50;25.87;;;4.10;84.40;;;;;;5120053;28;20187;-44
2021/11/26 04:38:17;;;;;;;41.50;27.40;;;4.20;84.60;;;;;;5119706;28;20192;-44
2021/11/26 04:40:43;;;;;;;40.70;27.97;;;4.20;84.60;;;;;;5119727;28;20428;-44
2021/11/26 04:43:09;;;;;;;36.83;25.73;;;4.20;84.60;;;;;;5120100;28;20695;-44
2021/11/26 04:45:35;;;;;;;39.13;26.17;;;4.20;84.60;;;;;;5119325;28;20469;-44
2021/11/26 04:48:00;;;;;;;41.10;28.17;;;4.10;84.60;;;;;;5119338;28;20173;-44
2021/11/26 04:50:26;;;;;;;42.13;29.43;;;4.10;84.70;;;;;;5119405;28;20426;-43
2021/11/26 04:52:53;;;;;;;42.70;28.80;;;4.10;85.40;;;;;;5118756;28;20641;-43
2021/11/26 04:55:19;;;;;;;40.00;27.80;;;4.10;84.90;;;;;;5118523;28;20266;-43
2021/11/26 04:57:44;;;;;;;38.67;27.13;;;4.10;85.00;;;;;;5118652;28;20857;-43
2021/11/26 05:00:14;;;;;;;42.03;28.23;;;4.10;85.00;;;;;;5117991;28;20461;-43
2021/11/26 05:02:39;;;;;;;44.70;30.50;;;4.10;85.00;;;;;;5116799;28;20684;-43
2021/11/26 05:05:05;;;;;;;46.10;29.70;;;4.10;85.20;;;;;;5116456;28;20413;-47
2021/11/26 05:07:31;;;;;;;46.77;29.87;;;4.10;85.30;;;;;;5117256;28;20577;-47
2021/11/26 05:09:59;;;;;;;42.77;28.23;;;4.10;85.50;;;;;;5114361;28;20730;-48
2021/11/26 05:12:30;;;;;;;44.20;28.60;;;4.10;85.70;;;;;;5115794;28;20577;-47
2021/11/26 05:14:57;;;;;;;43.53;30.63;;;4.10;85.80;;;;;;5116449;28;20429;-44
2021/11/26 05:17:22;;;;;;;42.17;28.23;;;4.10;85.80;;;;;;5117197;28;20426;-41
2021/11/26 05:19:48;;;;;;;41.53;28.63;;;4.10;85.80;;;;;;5115921;28;20525;-40
2021/11/26 05:22:14;;;;;;;43.93;29.50;;;4.10;85.80;;;;;;5116055;28;20165;-40
2021/11/26 05:24:40;;;;;;;40.47;27.67;;;4.10;85.90;;;;;;5116983;28;20172;-39
2021/11/26 05:27:05;;;;;;;47.83;29.70;;;4.00;86.00;;;;;;5117114;28;20421;-41
2021/11/26 05:29:31;;;;;;;48.03;32.00;;;4.00;86.20;;;;;;5116837;28;20188;-41
2021/11/26 05:31:57;;;;;;;47.63;29.47;;;4.00;86.40;;;;;;5115820;28;20324;-42
2021/11/26 05:34:23;;;;;;;45.30;28.60;;;4.00;86.70;;;;;;5115846;28;20234;-41
2021/11/26 05:36:48;;;;;;;44.23;26.63;;;4.00;86.90;;;;;;5118693;28;20184;-41
2021/11/26 05:39:14;;;;;;;42.37;28.93;;;4.00;86.90;;;;;;5118210;28;20260;-43
2021/11/26 05:41:40;;;;;;;46.40;28.37;;;4.00;86.80;;;;;;5117782;28;20184;-42
2021/11/26 05:44:05;;;;;;;44.30;28.87;;;4.00;86.80;;;;;;5117496;28;20172;-43
2021/11/26 05:46:31;;;;;;;47.63;30.20;;;4.00;86.70;;;;;;5116022;28;20418;-41
2021/11/26 05:48:57;;;;;;;43.20;28.70;;;4.10;86.70;;;;;;5116244;28;20747;-44
2021/11/26 05:51:23;;;;;;;47.37;30.10;;;4.00;86.50;;;;;;5116298;28;20468;-40
2021/11/26 05:53:48;;;;;;;42.23;29.00;;;4.10;86.60;;;;;;5116782;28;20220;-41
2021/11/26 05:56:14;;;;;;;45.50;29.63;;;4.10;86.60;;;;;;5117123;28;20627;-44
2021/11/26 05:58:40;;;;;;;41.50;28.03;;;4.10;86.50;;;;;;5116586;28;20620;-40
2021/11/26 06:01:05;;;;;;;46.97;31.20;;;4.10;86.50;;;;;;5117560;28;20199;-41
2021/11/26 06:03:31;;;;;;;46.10;30.20;;;4.10;86.60;;;;;;5117953;28;20808;-41
2021/11/26 06:05:56;;;;;;;42.37;27.40;;;4.10;86.80;;;;;;5117124;28;20172;-44
2021/11/26 06:08:22;;;;;;;46.70;29.13;;;4.00;86.70;;;;;;5114963;28;20176;-42
2021/11/26 06:10:48;;;;;;;42.50;28.20;;;4.10;86.80;;;;;;5114235;28;20184;-41
2021/11/26 06:13:13;;;;;;;37.13;26.33;;;4.00;86.70;;;;;;5113386;28;20229;-41
2021/11/26 06:15:39;;;;;;;42.57;28.47;;;4.00;86.80;;;;;;5114259;28;20197;-41
2021/11/26 06:18:05;;;;;;;37.17;25.80;;;4.00;86.80;;;;;;5113417;28;20211;-40
2021/11/26 06:20:30;;;;;;;43.40;27.73;;;4.00;86.70;;;;;;5111369;28;20180;-42
2021/11/26 06:22:56;;;;;;;42.07;26.63;;;4.00;86.70;;;;;;5094301;28;20187;-42
2021/11/26 06:25:23;;;;;;;39.23;27.10;;;4.00;86.80;;;;;;5113991;28;20613;-41
2021/11/26 06:27:49;;;;;;;39.87;28.00;;;4.00;86.80;;;;;;5114094;28;20172;-40
2021/11/26 06:30:17;;;;;;;44.30;25.93;;;4.00;87.00;;;;;;5113395;28;20997;-42
2021/11/26 06:32:44;;;;;;;43.27;28.50;;;4.00;87.00;;;;;;5115233;28;20414;-42
2021/11/26 06:35:12;;;;;;;44.40;28.60;;;4.00;87.00;;;;;;5115449;28;20473;-40
2021/11/26 06:37:37;;;;;;;40.13;27.60;;;4.00;87.20;;;;;;5115383;28;20456;-43
2021/11/26 06:40:06;;;;;;;42.83;28.10;;;4.00;87.20;;;;;;5116138;28;20426;-42
2021/11/26 06:42:32;;;;;;;38.90;26.07;;;4.00;87.30;;;;;;5115871;28;20180;-41
2021/11/26 06:44:58;;;;;;;40.07;27.13;;;4.00;87.20;;;;;;5114818;28;20425;-41
2021/11/26 06:47:24;;;;;;;41.73;26.00;;;4.00;87.10;;;;;;5115155;28;20771;-42
2021/11/26 06:49:50;;;;;;;40.00;26.53;;;4.10;87.20;;;;;;5114546;28;20519;-42
2021/11/26 06:52:16;;;;;;;38.67;26.80;;;4.10;87.20;;;;;;5114621;28;20437;-42
2021/11/26 06:54:42;;;;;;;39.50;26.97;;;4.10;87.10;;;;;;5114806;28;20163;-41
2021/11/26 06:57:08;;;;;;;36.53;25.07;;;4.10;87.10;;;;;;5114453;28;20516;-41
2021/11/26 06:59:33;;;;;;;38.57;25.80;;;4.10;87.00;;;;;;5114444;28;20529;-42
2021/11/26 07:01:59;;;;;;;39.43;26.23;;;4.20;87.10;;;;;;5112850;28;20188;-42
2021/11/26 07:04:25;;;;;;;38.43;25.10;;;4.20;87.10;;;;;;5114378;28;20449;-42
2021/11/26 07:06:50;;;;;;;36.77;25.03;;;4.20;87.00;;;;;;5115461;28;20233;-40
2021/11/26 07:09:16;;;;;;;44.17;27.60;;;4.20;87.00;;;;;;5115253;28;20180;-42
2021/11/26 07:11:42;;;;;;;36.60;25.30;;;4.20;87.00;;;;;;5115685;28;20260;-43
2021/11/26 07:14:08;;;;;;;40.43;26.07;;;4.20;87.00;;;;;;5115883;28;20420;-41
2021/11/26 07:16:33;;;;;;;35.00;24.40;;;4.20;86.90;;;;;;5115760;28;20188;-42
2021/11/26 07:18:59;;;;;;;40.40;27.63;;;4.20;86.80;;;;;;5120435;28;20459;-41
2021/11/26 07:21:25;;;;;;;39.40;26.60;;;4.20;86.80;;;;;;5120619;28;20179;-42
2021/11/26 07:23:51;;;;;;;36.50;24.80;;;4.20;86.80;;;;;;5118993;28;20413;-42
2021/11/26 07:26:17;;;;;;;36.43;24.73;;;4.30;86.90;;;;;;5120438;28;20452;-42
2021/11/26 07:28:44;;;;;;;38.60;25.27;;;4.30;86.80;;;;;;5118864;28;20417;-42
2021/11/26 07:31:10;;;;;;;39.90;27.10;;;4.30;86.90;;;;;;5118501;28;20206;-41
2021/11/26 07:33:35;;;;;;;39.60;25.63;;;4.30;86.80;;;;;;5119267;28;20410;-40
2021/11/26 07:36:01;;;;;;;39.10;25.77;;;4.30;86.80;;;;;;5119789;28;20642;-43
2021/11/26 07:38:27;;;;;;;36.37;24.73;;;4.30;86.80;;;;;;5119174;27;20195;-41
2021/11/26 07:40:53;;;;;;;40.57;26.40;;;4.30;86.90;;;;;;5100938;28;20524;-41
2021/11/26 07:43:20;;;;;;;38.73;25.33;;;4.30;86.80;;;;;;5118767;28;20500;-43
2021/11/26 07:45:46;;;;;;;37.33;23.73;;;4.30;86.80;;;;;;5118911;28;20180;-40
2021/11/26 07:48:12;;;;;;;37.43;24.90;;;4.30;86.80;;;;;;5119408;28;20409;-41
2021/11/26 07:50:38;;;;;;;37.90;25.00;;;4.30;86.80;;;;;;5119430;28;20460;-41
2021/11/26 07:53:04;;;;;;;37.93;24.50;;;4.30;86.80;;;;;;5118302;28;20314;-42
2021/11/26 07:55:30;;;;;;;38.67;25.73;;;4.40;87.00;;;;;;5119559;28;20859;-41
2021/11/26 07:57:55;;;;;;;39.00;26.70;;;4.40;86.90;;;;;;5119439;28;20449;-41
2021/11/26 08:00:21;;;;;;;38.63;25.57;;;4.40;86.70;;;;;;5119900;28;20188;-43
2021/11/26 08:02:46;;;;;;;36.10;24.63;;;4.50;86.80;;;;;;5120077;28;20169;-42
2021/11/26 08:05:13;;;;;;;34.80;24.43;;;4.50;86.70;;;;;;5119681;28;20680;-43
2021/11/26 08:07:39;;;;;;;36.60;25.20;;;4.50;86.50;;;;;;5119104;28;20505;-43
2021/11/26 08:10:08;;;;;;;39.77;25.23;;;4.60;86.50;;;;;;5105707;28;20515;-43
2021/11/26 08:12:38;;;;;;;35.57;25.73;;;4.60;86.30;;;;;;5106917;28;20180;-43
2021/11/26 08:15:10;;;;;;;39.00;25.37;;;4.60;86.20;;;;;;5119782;28;20437;-41
2021/11/26 08:17:36;;;;;;;42.07;27.13;;;4.70;86.30;;;;;;5117235;28;20460;-43
2021/11/26 08:20:04;;;;;;;37.20;24.50;;;4.70;86.20;;;;;;5116098;28;20429;-42
2021/11/26 08:22:29;;;;;;;38.33;25.10;;;4.70;86.10;;;;;;5117713;28;20198;-42
2021/11/26 08:24:55;;;;;;;39.20;25.03;;;4.70;86.00;;;;;;5117417;28;20437;-43
2021/11/26 08:27:21;;;;;;;35.17;24.87;;;4.80;86.00;;;;;;5117765;28;20183;-41
2021/11/26 08:29:46;;;;;;;39.07;24.43;;;4.80;85.90;;;;;;5117994;28;20184;-42
2021/11/26 08:32:12;;;;;;;36.93;24.13;;;4.80;85.80;;;;;;5118857;28;20192;-43
2021/11/26 08:34:37;;;;;;;38.07;25.73;;;4.90;85.80;;;;;;5118372;28;20172;-42
2021/11/26 08:37:03;;;;;;;34.37;24.13;;;4.90;85.60;;;;;;5118710;28;20190;-43
2021/11/26 08:39:29;;;;;;;39.40;26.80;;;5.00;85.60;;;;;;5117815;28;20216;-43
2021/11/26 08:41:54;;;;;;;38.20;25.20;;;5.00;85.40;;;;;;5117951;28;20613;-43
2021/11/26 08:44:20;;;;;;;39.60;26.50;;;5.10;85.40;;;;;;5116942;28;20193;-43
2021/11/26 08:46:46;;;;;;;35.37;24.77;;;5.10;85.30;;;;;;5116424;28;20352;-43
2021/11/26 08:49:13;;;;;;;40.87;26.10;;;5.20;85.20;;;;;;5115894;28;20229;-42
2021/11/26 08:51:40;;;;;;;38.60;27.20;;;5.20;85.00;;;;;;5115820;28;20180;-41
2021/11/26 08:54:06;;;;;;;41.97;26.97;;;5.30;85.10;;;;;;5116064;28;20552;-42
2021/11/26 08:56:33;;;;;;;39.33;26.07;;;5.30;85.00;;;;;;5115919;28;20818;-42
2021/11/26 08:58:59;;;;;;;42.63;28.13;;;5.30;84.90;;;;;;5116967;27;20492;-44
2021/11/26 09:01:25;;;;;;;44.47;28.47;;;5.40;85.00;;;;;;5116839;28;20426;-42
2021/11/26 09:03:51;;;;;;;46.13;29.10;;;5.50;85.30;;;;;;5115005;28;20937;-42
2021/11/26 09:06:18;;;;;;;46.13;29.50;;;5.50;85.00;;;;;;5116281;28;20192;-42
2021/11/26 09:08:44;;;;;;;44.50;30.10;;;5.60;84.80;;;;;;5116667;27;20541;-43
2021/11/26 09:11:10;;;;;;;49.67;29.80;;;5.60;84.50;;;;;;5115501;28;20540;-45
2021/11/26 09:13:36;;;;;;;48.77;33.10;;;5.60;84.20;;;;;;5116073;28;20457;-42
2021/11/26 09:16:02;;;;;;;46.27;30.50;;;5.60;84.10;;;;;;5116428;28;20464;-43
2021/11/26 09:18:28;;;;;;;45.50;28.57;;;5.70;84.20;;;;;;5117690;28;20250;-42
2021/11/26 09:20:54;;;;;;;46.70;30.07;;;5.70;84.20;;;;;;5098856;28;20188;-42
2021/11/26 09:23:21;;;;;;;47.33;30.23;;;5.70;84.00;;;;;;5115692;28;20441;-43
2021/11/26 09:25:48;;;;;;;42.30;29.07;;;5.80;83.90;;;;;;5115257;28;20483;-41
2021/11/26 09:28:14;;;;;;;45.47;31.10;;;5.80;83.70;;;;;;5115901;28;20414;-42
2021/11/26 09:30:40;;;;;;;48.47;31.17;;;5.80;83.70;;;;;;5115976;28;20547;-41
2021/11/26 09:33:06;;;;;;;52.33;32.60;;;5.80;83.70;;;;;;5117239;28;20180;-42
2021/11/26 09:35:32;;;;;;;48.30;32.17;;;5.70;83.60;;;;;;5116828;28;20434;-42
2021/11/26 09:38:01;;;;;;;50.00;31.80;;;5.80;83.70;;;;;;5116999;28;20653;-40
2021/11/26 09:40:28;;;;;;;48.17;31.07;;;5.70;83.70;;;;;;5114782;28;20426;-41
2021/11/26 09:42:54;;;;;;;51.33;32.83;;;5.80;83.70;;;;;;5116845;28;20414;-42
2021/11/26 09:45:22;;;;;;;49.20;32.20;;;5.80;83.70;;;;;;5115826;28;20445;-41
2021/11/26 09:47:51;;;;;;;47.63;30.57;;;5.80;83.60;;;;;;5113994;28;20410;-46
2021/11/26 09:50:18;;;;;;;44.47;29.20;;;5.80;83.60;;;;;;5112325;28;21038;-43
2021/11/26 09:52:45;;;;;;;48.77;30.47;;;5.80;83.50;;;;;;5113372;28;20472;-41
2021/11/26 09:55:12;;;;;;;46.33;29.27;;;5.80;83.50;;;;;;5112732;28;20444;-41
2021/11/26 09:57:40;;;;;;;41.37;27.60;;;5.80;83.50;;;;;;5108195;28;20427;-41
2021/11/26 10:00:11;;;;;;;42.00;27.80;;;5.80;84.10;;;;;;5093034;28;20438;-40
2021/11/26 10:02:37;;;;;;;43.73;28.93;;;5.80;83.40;;;;;;5094775;28;20708;-41
2021/11/26 10:05:08;;;;;;;42.33;28.10;;;5.80;83.50;;;;;;5093635;28;20534;-41
2021/11/26 10:07:48;;;;;;;49.40;29.67;;;5.80;83.60;;;;;;5095526;28;20411;-41
2021/11/26 10:10:20;;;;;;;47.33;30.07;;;5.80;83.60;;;;;;5094753;28;20441;-39
2021/11/26 10:13:01;;;;;;;44.53;29.50;;;5.80;83.60;;;;;;5096121;28;20419;-42
2021/11/26 10:15:40;;;;;;;20.10;14.03;;;5.90;83.70;;;;;;5096574;28;20411;-41
2021/11/26 10:18:12;;;;;;;24.73;15.80;;;7.10;99.90;;;;;;5095965;28;20728;-43
2021/11/26 10:20:55;;;;;;;28.97;16.33;;;8.50;99.90;;;;;;5095004;28;20447;-43
2021/11/26 10:23:24;;;;;;;22.90;13.93;;;9.60;99.90;;;;;;5095847;28;20410;-44
2021/11/26 10:25:49;;;;;;;19.40;13.23;;;10.40;98.90;;;;;;5094247;28;20524;-42
2021/11/26 10:28:16;;;;;;;17.73;12.70;;;11.20;96.70;;;;;;5094317;28;20510;-41
2021/11/26 10:30:45;;;;;;;18.87;13.90;;;11.90;94.30;;;;;;5094552;28;20214;-41
2021/11/26 10:33:23;;;;;;;17.10;12.90;;;12.40;92.50;;;;;;5094574;28;20776;-42
2021/11/26 10:35:52;;;;;;;19.30;14.97;;;12.90;91.40;;;;;;5095441;28;20428;-43
2021/11/26 10:38:26;;;;;;;16.27;13.20;;;13.30;89.30;;;;;;5094965;28;20522;-43
2021/11/26 10:40:55;;;;;;;15.87;13.27;;;13.50;89.30;;;;;;5095403;28;20731;-41
2021/11/26 10:59:50;;;;;;;17.47;14.37;;;14.70;80.10;;;;;;5100586;28;20477;-41
2021/11/26 11:02:27;;;;;;;16.03;13.90;;;14.80;78.90;;;;;;5098793;28;20711;-43
2021/11/26 11:04:53;;;;;;;15.20;13.20;;;14.90;78.50;;;;;;5096583;28;20428;-43
2021/11/26 11:07:19;;;;;;;15.27;13.17;;;15.00;78.00;;;;;;5097464;28;20410;-42
2021/11/26 11:09:47;;;;;;;18.17;14.87;;;15.10;76.80;;;;;;5097813;28;21652;-43
2021/11/26 11:12:14;;;;;;;16.73;14.70;;;15.10;76.20;;;;;;5098831;28;20256;-45
2021/11/26 11:14:41;;;;;;;16.63;13.93;;;15.10;75.70;;;;;;5098157;28;20444;-44
2021/11/26 11:17:07;;;;;;;19.90;15.27;;;15.10;75.20;;;;;;5096940;28;20436;-43
2021/11/26 11:19:33;;;;;;;17.30;13.97;;;15.20;74.40;;;;;;5095853;28;20472;-44
2021/11/26 11:21:59;;;;;;;17.60;12.10;;;15.20;74.90;;;;;;5096344;28;20564;-42
2021/11/26 11:24:27;;;;;;;18.23;13.73;;;15.30;75.60;;;;;;5095514;28;20434;-42
2021/11/26 11:26:53;;;;;;;15.43;12.40;;;15.30;76.10;;;;;;5097501;28;20423;-43
2021/11/26 11:29:23;;;;;;;20.90;12.90;;;15.40;75.80;;;;;;5095841;28;20471;-43
2021/11/26 11:31:50;;;;;;;19.33;12.77;;;15.50;75.70;;;;;;5096497;28;20434;-41
2021/11/26 11:34:19;;;;;;;16.37;12.03;;;15.50;74.80;;;;;;5096432;28;20425;-43
2021/11/26 11:36:45;;;;;;;17.47;12.37;;;15.50;74.50;;;;;;5097213;28;20461;-43
2021/11/26 11:39:11;;;;;;;16.70;13.07;;;15.60;74.80;;;;;;5096156;28;20485;-41
2021/11/26 11:41:50;;;;;;;17.67;12.67;;;15.50;73.60;;;;;;5096767;28;20453;-43
2021/11/26 11:44:29;;;;;;;28.83;14.90;;;15.50;73.00;;;;;;5097022;28;20203;-41
2021/11/26 11:46:57;;;;;;;15.40;13.03;;;15.50;72.90;;;;;;5096959;28;20563;-44
2021/11/26 11:49:25;;;;;;;15.37;13.73;;;15.60;72.90;;;;;;5097382;28;20735;-42
2021/11/26 11:51:51;;;;;;;19.47;12.90;;;15.60;72.60;;;;;;5098778;28;20776;-42
2021/11/26 11:54:18;;;;;;;16.67;14.07;;;15.70;72.60;;;;;;5098683;28;20454;-41
2021/11/26 11:56:54;;;;;;;22.17;13.83;;;15.70;72.20;;;;;;5097780;28;20443;-42
2021/11/26 11:59:24;;;;;;;21.20;14.43;;;15.80;71.70;;;;;;5097931;28;20446;-42
2021/11/26 12:01:49;;;;;;;20.77;14.27;;;15.80;71.00;;;;;;5097738;28;20495;-43
2021/11/26 12:04:18;;;;;;;19.50;12.90;;;15.80;70.70;;;;;;5096952;28;20415;-43
2021/11/26 12:06:46;;;;;;;16.13;13.57;;;15.70;70.40;;;;;;5097431;28;20528;-43
2021/11/26 12:09:24;;;;;;;15.30;11.70;;;15.80;70.50;;;;;;5096360;28;20483;-44
2021/11/26 12:11:55;;;;;;;17.00;13.30;;;15.80;70.10;;;;;;5096119;28;20832;-43
2021/11/26 12:14:22;;;;;;;19.50;13.50;;;15.90;70.00;;;;;;5095438;28;20536;-44
2021/11/26 12:16:49;;;;;;;18.13;12.97;;;15.90;69.70;;;;;;5094717;28;20473;-43
2021/11/26 12:19:24;;;;;;;16.90;13.77;;;15.90;69.30;;;;;;5111701;28;20811;-42
2021/11/26 12:21:52;;;;;;;16.57;13.37;;;15.90;68.70;;;;;;5117536;28;20428;-44
2021/11/26 12:24:20;;;;;;;19.77;14.70;;;15.90;68.50;;;;;;5114903;28;20513;-43
2021/11/26 12:26:57;;;;;;;15.23;12.90;;;15.90;68.40;;;;;;5116855;28;20440;-43
2021/11/26 12:29:50;;;;;;;14.83;12.43;;;16.00;68.40;;;;;;5115395;28;20430;-43
2021/11/26 12:32:18;;;;;;;13.87;12.10;;;16.00;68.10;;;;;;5117578;28;20505;-43
2021/11/26 12:34:53;;;;;;;16.17;13.40;;;16.10;67.70;;;;;;5118426;28;20410;-43
2021/11/26 12:40:43;;;;;;;15.70;12.87;;;16.10;65.90;;;;;;5118560;28;20514;-45
2021/11/26 12:43:08;;;;;;;15.40;12.47;;;16.20;66.20;;;;;;5116808;28;20890;-40
2021/11/26 12:45:35;;;;;;;16.47;13.50;;;16.10;66.20;;;;;;5116374;28;20515;-40
2021/11/26 12:48:21;;;;;;;17.03;15.20;;;15.90;65.70;;;;;;5117118;28;20204;-43
2021/11/26 12:51:04;;;;;;;18.33;14.30;;;15.70;64.90;;;;;;5116860;27;20410;-41
2021/11/26 12:53:31;;;;;;;17.50;13.93;;;15.50;65.60;;;;;;5116217;28;20474;-44
2021/11/26 12:56:01;;;;;;;17.37;14.60;;;15.40;65.20;;;;;;5115904;28;20451;-44